sensor_id;sensor_type;location;lat;lon;timestamp;temperature;humidity
79301;SHT31;68755;51.984;5.646;2023-07-08T00:01:20;24.1;42.9
79301;SHT31;68755;51.984;5.646;2023-07-08T00:03:50;24.0;42.8
79301;SHT31;68755;51.984;5.646;2023-07-08T00:06:22;24.0;42.8
79301;SHT31;68755;51.984;5.646;2023-07-08T00:08:54;24.0;42.8
79301;SHT31;68755;51.984;5.646;2023-07-08T00:11:25;24.0;42.9
79301;SHT31;68755;51.984;5.646;2023-07-08T00:13:56;23.9;42.9
79301;SHT31;68755;51.984;5.646;2023-07-08T00:16:25;23.9;42.9
79301;SHT31;68755;51.984;5.646;2023-07-08T00:18:55;23.9;43.1
79301;SHT31;68755;51.984;5.646;2023-07-08T00:21:25;23.8;42.9
79301;SHT31;68755;51.984;5.646;2023-07-08T00:23:55;23.8;43.1
79301;SHT31;68755;51.984;5.646;2023-07-08T00:26:26;23.8;43.0
79301;SHT31;68755;51.984;5.646;2023-07-08T00:28:57;23.8;43.3
79301;SHT31;68755;51.984;5.646;2023-07-08T00:31:26;23.7;43.3
79301;SHT31;68755;51.984;5.646;2023-07-08T00:33:59;23.7;43.3
79301;SHT31;68755;51.984;5.646;2023-07-08T00:36:31;23.7;43.4
79301;SHT31;68755;51.984;5.646;2023-07-08T00:39:00;23.7;43.6
79301;SHT31;68755;51.984;5.646;2023-07-08T00:41:34;23.7;43.8
79301;SHT31;68755;51.984;5.646;2023-07-08T00:44:10;23.6;43.6
79301;SHT31;68755;51.984;5.646;2023-07-08T00:46:52;23.6;43.7
79301;SHT31;68755;51.984;5.646;2023-07-08T00:49:31;23.6;43.7
79301;SHT31;68755;51.984;5.646;2023-07-08T00:52:18;23.6;43.7
79301;SHT31;68755;51.984;5.646;2023-07-08T00:54:51;23.5;43.9
79301;SHT31;68755;51.984;5.646;2023-07-08T00:57:25;23.5;44.0
79301;SHT31;68755;51.984;5.646;2023-07-08T01:00:00;23.5;44.0
79301;SHT31;68755;51.984;5.646;2023-07-08T01:02:40;23.5;44.0
79301;SHT31;68755;51.984;5.646;2023-07-08T01:05:12;23.5;44.0
79301;SHT31;68755;51.984;5.646;2023-07-08T01:07:45;23.4;44.1
79301;SHT31;68755;51.984;5.646;2023-07-08T01:10:24;23.4;44.2
79301;SHT31;68755;51.984;5.646;2023-07-08T01:12:59;23.4;44.2
79301;SHT31;68755;51.984;5.646;2023-07-08T01:15:39;23.3;44.3
79301;SHT31;68755;51.984;5.646;2023-07-08T01:18:12;23.3;44.3
79301;SHT31;68755;51.984;5.646;2023-07-08T01:20:46;23.3;44.5
79301;SHT31;68755;51.984;5.646;2023-07-08T01:23:17;23.2;44.5
79301;SHT31;68755;51.984;5.646;2023-07-08T01:25:48;23.2;44.5
79301;SHT31;68755;51.984;5.646;2023-07-08T01:28:18;23.2;44.7
79301;SHT31;68755;51.984;5.646;2023-07-08T01:30:49;23.2;44.7
79301;SHT31;68755;51.984;5.646;2023-07-08T01:33:21;23.1;44.7
79301;SHT31;68755;51.984;5.646;2023-07-08T01:35:52;23.1;44.6
79301;SHT31;68755;51.984;5.646;2023-07-08T01:38:25;23.1;44.9
79301;SHT31;68755;51.984;5.646;2023-07-08T01:40:57;23.1;44.8
79301;SHT31;68755;51.984;5.646;2023-07-08T01:43:27;23.0;45.0
79301;SHT31;68755;51.984;5.646;2023-07-08T01:46:00;23.0;45.2
79301;SHT31;68755;51.984;5.646;2023-07-08T01:48:38;23.0;45.0
79301;SHT31;68755;51.984;5.646;2023-07-08T01:51:09;23.0;45.3
79301;SHT31;68755;51.984;5.646;2023-07-08T01:53:43;23.0;45.3
79301;SHT31;68755;51.984;5.646;2023-07-08T01:56:13;22.9;45.3
79301;SHT31;68755;51.984;5.646;2023-07-08T01:58:43;22.9;45.4
79301;SHT31;68755;51.984;5.646;2023-07-08T02:01:14;22.9;45.5
79301;SHT31;68755;51.984;5.646;2023-07-08T02:03:43;22.9;45.4
79301;SHT31;68755;51.984;5.646;2023-07-08T02:06:15;22.8;45.5
79301;SHT31;68755;51.984;5.646;2023-07-08T02:08:45;22.8;45.6
79301;SHT31;68755;51.984;5.646;2023-07-08T02:11:16;22.8;45.6
79301;SHT31;68755;51.984;5.646;2023-07-08T02:13:46;22.8;45.8
79301;SHT31;68755;51.984;5.646;2023-07-08T02:16:16;22.7;46.0
79301;SHT31;68755;51.984;5.646;2023-07-08T02:18:46;22.7;46.1
79301;SHT31;68755;51.984;5.646;2023-07-08T02:21:15;22.7;46.0
79301;SHT31;68755;51.984;5.646;2023-07-08T02:23:50;22.7;46.2
79301;SHT31;68755;51.984;5.646;2023-07-08T02:26:21;22.7;46.2
79301;SHT31;68755;51.984;5.646;2023-07-08T02:28:50;22.7;46.2
79301;SHT31;68755;51.984;5.646;2023-07-08T02:31:20;22.6;46.4
79301;SHT31;68755;51.984;5.646;2023-07-08T02:33:52;22.6;46.7
79301;SHT31;68755;51.984;5.646;2023-07-08T02:36:22;22.6;46.6
79301;SHT31;68755;51.984;5.646;2023-07-08T02:38:51;22.6;46.4
79301;SHT31;68755;51.984;5.646;2023-07-08T02:41:21;22.6;46.8
79301;SHT31;68755;51.984;5.646;2023-07-08T02:43:51;22.6;47.2
79301;SHT31;68755;51.984;5.646;2023-07-08T02:46:21;22.6;47.2
79301;SHT31;68755;51.984;5.646;2023-07-08T02:48:50;22.5;46.9
79301;SHT31;68755;51.984;5.646;2023-07-08T02:51:20;22.5;46.9
79301;SHT31;68755;51.984;5.646;2023-07-08T02:53:50;22.5;47.1
79301;SHT31;68755;51.984;5.646;2023-07-08T02:56:19;22.5;47.0
79301;SHT31;68755;51.984;5.646;2023-07-08T02:58:50;22.5;47.2
79301;SHT31;68755;51.984;5.646;2023-07-08T03:01:20;22.5;47.3
79301;SHT31;68755;51.984;5.646;2023-07-08T03:03:50;22.4;47.4
79301;SHT31;68755;51.984;5.646;2023-07-08T03:06:24;22.4;47.4
79301;SHT31;68755;51.984;5.646;2023-07-08T03:08:53;22.4;47.4
79301;SHT31;68755;51.984;5.646;2023-07-08T03:11:23;22.4;47.3
79301;SHT31;68755;51.984;5.646;2023-07-08T03:13:53;22.4;47.8
79301;SHT31;68755;51.984;5.646;2023-07-08T03:16:22;22.4;47.5
79301;SHT31;68755;51.984;5.646;2023-07-08T03:18:52;22.4;47.8
79301;SHT31;68755;51.984;5.646;2023-07-08T03:21:23;22.4;48.1
79301;SHT31;68755;51.984;5.646;2023-07-08T03:23:52;22.4;48.1
79301;SHT31;68755;51.984;5.646;2023-07-08T03:26:25;22.4;48.2
79301;SHT31;68755;51.984;5.646;2023-07-08T03:28:55;22.4;47.8
79301;SHT31;68755;51.984;5.646;2023-07-08T03:31:25;22.4;47.9
79301;SHT31;68755;51.984;5.646;2023-07-08T03:33:55;22.4;48.2
79301;SHT31;68755;51.984;5.646;2023-07-08T03:36:26;22.4;48.8
79301;SHT31;68755;51.984;5.646;2023-07-08T03:38:57;22.3;48.8
79301;SHT31;68755;51.984;5.646;2023-07-08T03:41:28;22.3;48.9
79301;SHT31;68755;51.984;5.646;2023-07-08T03:43:57;22.3;48.6
79301;SHT31;68755;51.984;5.646;2023-07-08T03:46:27;22.3;48.9
79301;SHT31;68755;51.984;5.646;2023-07-08T03:48:56;22.3;48.8
79301;SHT31;68755;51.984;5.646;2023-07-08T03:51:30;22.3;48.7
79301;SHT31;68755;51.984;5.646;2023-07-08T03:54:01;22.2;49.0
79301;SHT31;68755;51.984;5.646;2023-07-08T03:56:31;22.2;49.0
79301;SHT31;68755;51.984;5.646;2023-07-08T03:59:01;22.2;48.7
79301;SHT31;68755;51.984;5.646;2023-07-08T04:01:33;22.2;48.6
79301;SHT31;68755;51.984;5.646;2023-07-08T04:04:03;22.2;49.6
79301;SHT31;68755;51.984;5.646;2023-07-08T04:06:33;22.1;49.3
79301;SHT31;68755;51.984;5.646;2023-07-08T04:09:03;22.1;49.6
79301;SHT31;68755;51.984;5.646;2023-07-08T04:11:33;22.1;49.9
79301;SHT31;68755;51.984;5.646;2023-07-08T04:14:03;22.1;50.4
79301;SHT31;68755;51.984;5.646;2023-07-08T04:16:35;22.1;50.2
79301;SHT31;68755;51.984;5.646;2023-07-08T04:19:12;22.1;49.6
79301;SHT31;68755;51.984;5.646;2023-07-08T04:21:43;22.1;50.7
79301;SHT31;68755;51.984;5.646;2023-07-08T04:24:15;22.1;50.4
79301;SHT31;68755;51.984;5.646;2023-07-08T04:26:47;22.1;50.4
79301;SHT31;68755;51.984;5.646;2023-07-08T04:29:20;22.1;50.6
79301;SHT31;68755;51.984;5.646;2023-07-08T04:31:50;22.1;50.3
79301;SHT31;68755;51.984;5.646;2023-07-08T04:34:20;22.1;49.8
79301;SHT31;68755;51.984;5.646;2023-07-08T04:36:50;22.1;51.1
79301;SHT31;68755;51.984;5.646;2023-07-08T04:39:22;22.1;51.7
79301;SHT31;68755;51.984;5.646;2023-07-08T04:41:52;22.1;49.6
79301;SHT31;68755;51.984;5.646;2023-07-08T04:44:21;22.1;49.7
79301;SHT31;68755;51.984;5.646;2023-07-08T04:46:54;22.1;49.5
79301;SHT31;68755;51.984;5.646;2023-07-08T04:49:25;22.1;49.3
79301;SHT31;68755;51.984;5.646;2023-07-08T04:51:59;22.1;49.7
79301;SHT31;68755;51.984;5.646;2023-07-08T04:54:29;22.1;49.4
79301;SHT31;68755;51.984;5.646;2023-07-08T04:56:59;22.1;49.5
79301;SHT31;68755;51.984;5.646;2023-07-08T04:59:28;22.1;49.7
79301;SHT31;68755;51.984;5.646;2023-07-08T05:02:02;22.1;49.9
79301;SHT31;68755;51.984;5.646;2023-07-08T05:04:31;22.1;49.8
79301;SHT31;68755;51.984;5.646;2023-07-08T05:07:01;22.1;49.8
79301;SHT31;68755;51.984;5.646;2023-07-08T05:09:31;22.2;49.9
79301;SHT31;68755;51.984;5.646;2023-07-08T05:12:03;22.2;49.7
79301;SHT31;68755;51.984;5.646;2023-07-08T05:14:33;22.2;49.7
79301;SHT31;68755;51.984;5.646;2023-07-08T05:17:03;22.2;50.8
79301;SHT31;68755;51.984;5.646;2023-07-08T05:19:33;22.2;50.1
79301;SHT31;68755;51.984;5.646;2023-07-08T05:22:03;22.2;49.7
79301;SHT31;68755;51.984;5.646;2023-07-08T05:24:33;22.2;49.8
79301;SHT31;68755;51.984;5.646;2023-07-08T05:27:05;22.3;49.8
79301;SHT31;68755;51.984;5.646;2023-07-08T05:29:34;22.3;50.5
79301;SHT31;68755;51.984;5.646;2023-07-08T05:32:05;22.3;50.0
79301;SHT31;68755;51.984;5.646;2023-07-08T05:34:34;22.3;49.6
79301;SHT31;68755;51.984;5.646;2023-07-08T05:37:04;22.3;49.8
79301;SHT31;68755;51.984;5.646;2023-07-08T05:39:34;22.4;50.1
79301;SHT31;68755;51.984;5.646;2023-07-08T05:42:04;22.4;50.4
79301;SHT31;68755;51.984;5.646;2023-07-08T05:44:36;22.4;49.7
79301;SHT31;68755;51.984;5.646;2023-07-08T05:47:06;22.4;49.8
79301;SHT31;68755;51.984;5.646;2023-07-08T05:49:38;22.5;50.0
79301;SHT31;68755;51.984;5.646;2023-07-08T05:52:08;22.5;50.0
79301;SHT31;68755;51.984;5.646;2023-07-08T05:54:39;22.5;50.1
79301;SHT31;68755;51.984;5.646;2023-07-08T05:57:10;22.5;50.3
79301;SHT31;68755;51.984;5.646;2023-07-08T05:59:42;22.6;50.5
79301;SHT31;68755;51.984;5.646;2023-07-08T06:02:13;22.6;50.3
79301;SHT31;68755;51.984;5.646;2023-07-08T06:04:43;22.6;49.9
79301;SHT31;68755;51.984;5.646;2023-07-08T06:07:13;22.7;49.4
79301;SHT31;68755;51.984;5.646;2023-07-08T06:09:44;22.7;50.0
79301;SHT31;68755;51.984;5.646;2023-07-08T06:12:14;22.7;49.3
79301;SHT31;68755;51.984;5.646;2023-07-08T06:14:44;22.8;50.0
79301;SHT31;68755;51.984;5.646;2023-07-08T06:17:13;22.8;50.0
79301;SHT31;68755;51.984;5.646;2023-07-08T06:19:44;22.8;49.7
79301;SHT31;68755;51.984;5.646;2023-07-08T06:22:13;22.9;49.7
79301;SHT31;68755;51.984;5.646;2023-07-08T06:24:43;22.9;49.1
79301;SHT31;68755;51.984;5.646;2023-07-08T06:27:15;22.9;48.8
79301;SHT31;68755;51.984;5.646;2023-07-08T06:29:45;23.0;48.5
79301;SHT31;68755;51.984;5.646;2023-07-08T06:32:15;23.0;48.9
79301;SHT31;68755;51.984;5.646;2023-07-08T06:34:45;23.0;48.3
79301;SHT31;68755;51.984;5.646;2023-07-08T06:37:14;23.0;48.5
79301;SHT31;68755;51.984;5.646;2023-07-08T06:39:44;23.1;48.3
79301;SHT31;68755;51.984;5.646;2023-07-08T06:42:14;23.1;48.3
79301;SHT31;68755;51.984;5.646;2023-07-08T06:44:44;23.1;48.8
79301;SHT31;68755;51.984;5.646;2023-07-08T06:47:19;23.2;49.3
79301;SHT31;68755;51.984;5.646;2023-07-08T06:49:49;23.2;48.5
79301;SHT31;68755;51.984;5.646;2023-07-08T06:52:19;23.3;47.7
79301;SHT31;68755;51.984;5.646;2023-07-08T06:54:49;23.3;48.0
79301;SHT31;68755;51.984;5.646;2023-07-08T06:57:19;23.3;48.4
79301;SHT31;68755;51.984;5.646;2023-07-08T06:59:48;23.4;48.1
79301;SHT31;68755;51.984;5.646;2023-07-08T07:02:18;23.4;48.3
79301;SHT31;68755;51.984;5.646;2023-07-08T07:04:48;23.5;48.5
79301;SHT31;68755;51.984;5.646;2023-07-08T07:07:17;23.5;48.5
79301;SHT31;68755;51.984;5.646;2023-07-08T07:09:47;23.5;49.2
79301;SHT31;68755;51.984;5.646;2023-07-08T07:12:18;23.6;48.9
79301;SHT31;68755;51.984;5.646;2023-07-08T07:14:48;23.6;48.4
79301;SHT31;68755;51.984;5.646;2023-07-08T07:17:20;23.7;48.0
79301;SHT31;68755;51.984;5.646;2023-07-08T07:19:50;23.7;47.7
79301;SHT31;68755;51.984;5.646;2023-07-08T07:22:20;23.8;48.0
79301;SHT31;68755;51.984;5.646;2023-07-08T07:24:50;23.8;48.1
79301;SHT31;68755;51.984;5.646;2023-07-08T07:27:20;23.9;48.1
79301;SHT31;68755;51.984;5.646;2023-07-08T07:29:51;23.9;49.3
79301;SHT31;68755;51.984;5.646;2023-07-08T07:32:23;23.9;48.5
79301;SHT31;68755;51.984;5.646;2023-07-08T07:34:53;24.0;48.9
79301;SHT31;68755;51.984;5.646;2023-07-08T07:37:25;24.1;48.5
79301;SHT31;68755;51.984;5.646;2023-07-08T07:39:55;24.1;48.3
79301;SHT31;68755;51.984;5.646;2023-07-08T07:42:27;24.2;47.8
79301;SHT31;68755;51.984;5.646;2023-07-08T07:44:57;24.3;48.4
79301;SHT31;68755;51.984;5.646;2023-07-08T07:47:27;24.3;48.4
79301;SHT31;68755;51.984;5.646;2023-07-08T07:49:56;24.4;48.3
79301;SHT31;68755;51.984;5.646;2023-07-08T07:52:26;24.4;48.0
79301;SHT31;68755;51.984;5.646;2023-07-08T07:54:56;24.5;48.3
79301;SHT31;68755;51.984;5.646;2023-07-08T07:57:26;24.5;48.4
79301;SHT31;68755;51.984;5.646;2023-07-08T07:59:56;24.6;48.5
79301;SHT31;68755;51.984;5.646;2023-07-08T08:02:25;24.7;46.9
79301;SHT31;68755;51.984;5.646;2023-07-08T08:04:55;24.7;46.9
79301;SHT31;68755;51.984;5.646;2023-07-08T08:07:25;24.8;47.5
79301;SHT31;68755;51.984;5.646;2023-07-08T08:09:54;24.9;47.9
79301;SHT31;68755;51.984;5.646;2023-07-08T08:12:25;25.0;47.5
79301;SHT31;68755;51.984;5.646;2023-07-08T08:14:55;25.1;47.3
79301;SHT31;68755;51.984;5.646;2023-07-08T08:17:25;25.2;47.1
79301;SHT31;68755;51.984;5.646;2023-07-08T08:19:54;25.4;46.1
79301;SHT31;68755;51.984;5.646;2023-07-08T08:22:24;25.5;46.7
79301;SHT31;68755;51.984;5.646;2023-07-08T08:24:54;25.6;46.1
79301;SHT31;68755;51.984;5.646;2023-07-08T08:27:23;25.7;45.7
79301;SHT31;68755;51.984;5.646;2023-07-08T08:29:53;25.9;45.8
79301;SHT31;68755;51.984;5.646;2023-07-08T08:32:23;26.0;47.0
79301;SHT31;68755;51.984;5.646;2023-07-08T08:34:52;26.1;45.5
79301;SHT31;68755;51.984;5.646;2023-07-08T08:37:22;26.2;46.0
79301;SHT31;68755;51.984;5.646;2023-07-08T08:39:52;26.3;45.5
79301;SHT31;68755;51.984;5.646;2023-07-08T08:42:26;26.4;45.7
79301;SHT31;68755;51.984;5.646;2023-07-08T08:44:59;26.5;45.7
79301;SHT31;68755;51.984;5.646;2023-07-08T08:47:35;26.6;45.4
79301;SHT31;68755;51.984;5.646;2023-07-08T08:50:20;26.8;46.4
79301;SHT31;68755;51.984;5.646;2023-07-08T08:52:53;26.9;45.0
79301;SHT31;68755;51.984;5.646;2023-07-08T08:55:24;27.0;44.5
79301;SHT31;68755;51.984;5.646;2023-07-08T08:58:02;27.1;44.2
79301;SHT31;68755;51.984;5.646;2023-07-08T09:00:53;27.2;44.8
79301;SHT31;68755;51.984;5.646;2023-07-08T09:03:35;27.3;43.8
79301;SHT31;68755;51.984;5.646;2023-07-08T09:06:12;27.4;44.4
79301;SHT31;68755;51.984;5.646;2023-07-08T09:08:43;27.5;44.8
79301;SHT31;68755;51.984;5.646;2023-07-08T09:11:26;27.6;45.4
79301;SHT31;68755;51.984;5.646;2023-07-08T09:13:54;27.7;44.7
79301;SHT31;68755;51.984;5.646;2023-07-08T09:16:39;27.7;44.8
79301;SHT31;68755;51.984;5.646;2023-07-08T09:19:14;27.8;44.8
79301;SHT31;68755;51.984;5.646;2023-07-08T09:21:48;27.9;45.0
79301;SHT31;68755;51.984;5.646;2023-07-08T09:24:29;28.0;44.2
79301;SHT31;68755;51.984;5.646;2023-07-08T09:27:02;28.1;43.4
79301;SHT31;68755;51.984;5.646;2023-07-08T09:29:33;28.2;43.0
79301;SHT31;68755;51.984;5.646;2023-07-08T09:32:16;28.3;43.1
79301;SHT31;68755;51.984;5.646;2023-07-08T09:34:51;28.3;43.3
79301;SHT31;68755;51.984;5.646;2023-07-08T09:37:27;28.4;45.0
79301;SHT31;68755;51.984;5.646;2023-07-08T09:40:00;28.5;44.2
79301;SHT31;68755;51.984;5.646;2023-07-08T09:42:32;28.6;45.0
79301;SHT31;68755;51.984;5.646;2023-07-08T09:45:13;28.6;42.7
79301;SHT31;68755;51.984;5.646;2023-07-08T09:47:44;28.7;43.7
79301;SHT31;68755;51.984;5.646;2023-07-08T09:50:18;28.8;43.5
79301;SHT31;68755;51.984;5.646;2023-07-08T09:52:51;28.9;42.8
79301;SHT31;68755;51.984;5.646;2023-07-08T09:55:21;28.9;42.9
79301;SHT31;68755;51.984;5.646;2023-07-08T09:57:53;29.0;43.3
79301;SHT31;68755;51.984;5.646;2023-07-08T10:00:32;29.1;42.3
79301;SHT31;68755;51.984;5.646;2023-07-08T10:03:09;29.1;41.9
79301;SHT31;68755;51.984;5.646;2023-07-08T10:05:46;29.2;42.3
79301;SHT31;68755;51.984;5.646;2023-07-08T10:08:18;29.3;41.6
79301;SHT31;68755;51.984;5.646;2023-07-08T10:10:55;29.4;41.5
79301;SHT31;68755;51.984;5.646;2023-07-08T10:13:37;29.4;42.4
79301;SHT31;68755;51.984;5.646;2023-07-08T10:16:13;29.5;43.9
79301;SHT31;68755;51.984;5.646;2023-07-08T10:18:44;29.6;43.5
79301;SHT31;68755;51.984;5.646;2023-07-08T10:21:28;29.6;44.7
79301;SHT31;68755;51.984;5.646;2023-07-08T10:24:09;29.7;41.7
79301;SHT31;68755;51.984;5.646;2023-07-08T10:26:45;29.8;44.1
79301;SHT31;68755;51.984;5.646;2023-07-08T10:29:24;29.8;44.0
79301;SHT31;68755;51.984;5.646;2023-07-08T10:32:04;29.9;42.9
79301;SHT31;68755;51.984;5.646;2023-07-08T10:34:44;30.0;41.3
79301;SHT31;68755;51.984;5.646;2023-07-08T10:37:24;30.1;43.3
